createdAt,value
2017-06-28T00:00:22.461Z,0
2017-06-28T00:01:24.371Z,0
2017-06-28T00:02:26.732Z,0
2017-06-28T00:03:29.038Z,0
2017-06-28T00:04:31.296Z,0
2017-06-28T00:05:33.580Z,0
2017-06-28T00:06:34.961Z,0
2017-06-28T00:07:37.160Z,0
2017-06-28T00:08:39.305Z,0
2017-06-28T00:09:41.285Z,0
2017-06-28T00:10:43.324Z,0
2017-06-28T00:11:45.512Z,0
2017-06-28T00:12:46.898Z,0
2017-06-28T00:13:48.963Z,0
2017-06-28T00:14:50.874Z,0
2017-06-28T00:15:52.831Z,0
2017-06-28T00:16:55.051Z,0
2017-06-28T00:17:57.206Z,0
2017-06-28T00:18:59.326Z,0
2017-06-28T00:20:01.567Z,0
2017-06-28T00:21:02.961Z,0
2017-06-28T00:22:05.368Z,0
2017-06-28T00:23:06.758Z,0
2017-06-28T00:24:08.809Z,0
2017-06-28T00:25:11.010Z,0
2017-06-28T00:26:12.392Z,0
2017-06-28T00:27:14.687Z,0
2017-06-28T00:28:16.832Z,0
2017-06-28T00:29:18.835Z,0
2017-06-28T00:30:20.840Z,0
2017-06-28T00:31:23.223Z,0
2017-06-28T00:32:25.345Z,0
2017-06-28T00:33:27.604Z,0
2017-06-28T00:34:28.986Z,0
2017-06-28T00:35:31.243Z,0
2017-06-28T00:36:32.628Z,0
2017-06-28T00:37:34.018Z,0
2017-06-28T00:38:35.402Z,0
2017-06-28T00:39:36.788Z,0
2017-06-28T00:40:38.161Z,0
2017-06-28T00:41:39.535Z,0
2017-06-28T00:42:40.916Z,0
2017-06-28T00:43:42.292Z,0
2017-06-28T00:44:43.675Z,0
2017-06-28T00:45:45.064Z,0
2017-06-28T00:46:46.449Z,0
2017-06-28T00:47:47.830Z,0
2017-06-28T00:48:49.210Z,0
2017-06-28T00:49:50.596Z,0
2017-06-28T00:50:51.974Z,0
2017-06-28T00:51:53.353Z,0
2017-06-28T00:52:54.738Z,0
2017-06-28T00:53:56.120Z,0
2017-06-28T00:54:57.503Z,0
2017-06-28T00:55:58.885Z,0
2017-06-28T00:57:00.269Z,0
2017-06-28T00:58:01.649Z,0
2017-06-28T00:59:03.032Z,0
2017-06-28T01:00:04.410Z,0
2017-06-28T01:01:05.813Z,0
2017-06-28T01:02:07.180Z,0
2017-06-28T01:03:08.556Z,0
2017-06-28T01:04:09.933Z,0
2017-06-28T01:05:11.311Z,0
2017-06-28T01:06:12.719Z,0
2017-06-28T01:07:14.078Z,0
2017-06-28T01:08:15.456Z,0
2017-06-28T01:09:16.834Z,0
2017-06-28T01:10:18.216Z,0
2017-06-28T01:11:19.593Z,0
2017-06-28T01:12:20.971Z,0
2017-06-28T01:13:22.357Z,0
2017-06-28T01:14:23.742Z,0
2017-06-28T01:15:25.121Z,0
2017-06-28T01:16:26.546Z,0
2017-06-28T01:17:27.928Z,0
2017-06-28T01:18:29.390Z,0
2017-06-28T01:19:30.859Z,0
2017-06-28T01:20:32.247Z,0
2017-06-28T01:21:33.628Z,0
2017-06-28T01:22:35.009Z,0
2017-06-28T01:23:36.578Z,0
2017-06-28T01:24:37.934Z,0
2017-06-28T01:25:39.320Z,0
2017-06-28T01:26:40.710Z,0
2017-06-28T01:27:42.099Z,0
2017-06-28T01:28:43.507Z,0
2017-06-28T01:29:44.893Z,0
2017-06-28T01:30:46.298Z,0
2017-06-28T01:31:47.687Z,0
2017-06-28T01:32:49.064Z,0
2017-06-28T01:33:50.446Z,0
2017-06-28T01:34:51.844Z,0
2017-06-28T01:35:53.257Z,0
2017-06-28T01:36:54.602Z,0
2017-06-28T01:37:55.986Z,0
2017-06-28T01:38:57.367Z,0
2017-06-28T01:39:58.755Z,0
2017-06-28T01:41:00.138Z,0
2017-06-28T01:42:01.520Z,0
2017-06-28T01:43:02.920Z,0
2017-06-28T01:44:04.315Z,0
2017-06-28T01:45:05.696Z,0
2017-06-28T01:46:07.167Z,0
2017-06-28T01:47:08.675Z,0
2017-06-28T01:48:10.056Z,0
2017-06-28T01:49:11.461Z,0
2017-06-28T01:50:12.847Z,0
2017-06-28T01:51:14.221Z,0
2017-06-28T01:52:15.602Z,0
2017-06-28T01:53:16.990Z,0
2017-06-28T01:54:18.431Z,0
2017-06-28T01:55:19.785Z,0
2017-06-28T01:56:21.166Z,0
2017-06-28T01:57:22.542Z,0
2017-06-28T01:58:23.931Z,0
2017-06-28T01:59:25.314Z,0
2017-06-28T02:00:26.694Z,0
2017-06-28T02:01:28.077Z,0
2017-06-28T02:02:29.459Z,0
2017-06-28T02:03:30.847Z,0
2017-06-28T02:04:32.230Z,0
2017-06-28T02:05:33.609Z,0
2017-06-28T02:06:34.992Z,0
2017-06-28T02:07:36.372Z,0
2017-06-28T02:08:37.770Z,0
2017-06-28T02:09:39.164Z,0
2017-06-28T02:10:40.549Z,0
2017-06-28T02:11:41.936Z,0
2017-06-28T02:12:43.318Z,0
2017-06-28T02:13:44.703Z,0
2017-06-28T02:14:46.086Z,0
2017-06-28T02:15:47.470Z,0
2017-06-28T02:16:48.852Z,0
2017-06-28T02:17:50.231Z,0
2017-06-28T02:18:51.607Z,0
2017-06-28T02:19:52.991Z,0
2017-06-28T02:20:54.381Z,0
2017-06-28T02:21:55.769Z,0
2017-06-28T02:22:57.157Z,0
2017-06-28T02:23:58.536Z,0
2017-06-28T02:24:59.914Z,0
2017-06-28T02:26:01.294Z,0
2017-06-28T02:27:02.673Z,0
2017-06-28T02:28:04.047Z,0
2017-06-28T02:29:05.426Z,0
2017-06-28T02:30:06.806Z,0
2017-06-28T02:31:08.186Z,0
2017-06-28T02:32:09.562Z,0
2017-06-28T02:33:10.942Z,0
2017-06-28T02:34:12.322Z,0
2017-06-28T02:35:13.699Z,0
2017-06-28T02:36:15.082Z,0
2017-06-28T02:37:16.469Z,0
2017-06-28T02:38:17.844Z,0
2017-06-28T02:39:19.229Z,0
2017-06-28T02:40:20.613Z,0
2017-06-28T02:41:21.994Z,0
2017-06-28T02:42:23.373Z,0
2017-06-28T02:43:24.753Z,0
2017-06-28T02:44:26.156Z,0
2017-06-28T02:45:27.534Z,0
2017-06-28T02:46:28.915Z,0
2017-06-28T02:47:30.301Z,0
2017-06-28T02:48:31.686Z,0
2017-06-28T02:49:33.063Z,0
2017-06-28T02:50:34.457Z,0
2017-06-28T02:51:35.842Z,0
2017-06-28T02:52:37.216Z,0
2017-06-28T02:53:38.599Z,4
2017-06-28T02:54:39.986Z,4
2017-06-28T02:55:41.372Z,4
2017-06-28T02:56:42.751Z,0
2017-06-28T02:57:44.131Z,4
2017-06-28T02:58:45.514Z,4
2017-06-28T02:59:46.895Z,4
2017-06-28T03:00:48.274Z,4
2017-06-28T03:01:49.652Z,4
2017-06-28T03:02:51.031Z,8
2017-06-28T03:03:52.409Z,8
2017-06-28T03:04:53.790Z,8
2017-06-28T03:05:55.173Z,8
2017-06-28T03:06:56.566Z,8
2017-06-28T03:07:57.945Z,12
2017-06-28T03:08:59.324Z,8
2017-06-28T03:10:00.705Z,12
2017-06-28T03:11:02.086Z,8
2017-06-28T03:12:03.468Z,12
2017-06-28T03:13:04.847Z,12
2017-06-28T03:14:06.227Z,16
2017-06-28T03:15:07.610Z,12
2017-06-28T03:16:08.996Z,16
2017-06-28T03:17:10.375Z,20
2017-06-28T03:18:11.755Z,20
2017-06-28T03:19:13.135Z,20
2017-06-28T03:20:14.513Z,24
2017-06-28T03:21:15.891Z,28
2017-06-28T03:22:17.292Z,28
2017-06-28T03:23:18.680Z,32
2017-06-28T03:24:20.054Z,36
2017-06-28T03:25:21.435Z,36
2017-06-28T03:26:22.815Z,44
2017-06-28T03:27:24.192Z,44
2017-06-28T03:28:25.590Z,52
2017-06-28T03:29:26.976Z,56
2017-06-28T03:30:28.360Z,64
2017-06-28T03:31:29.737Z,72
2017-06-28T03:32:31.115Z,76
2017-06-28T03:33:32.497Z,76
2017-06-28T03:34:33.877Z,80
2017-06-28T03:35:35.263Z,84
2017-06-28T03:36:36.646Z,84
2017-06-28T03:37:38.025Z,92
2017-06-28T03:38:39.404Z,96
2017-06-28T03:39:40.787Z,100
2017-06-28T03:40:42.174Z,100
2017-06-28T03:41:43.556Z,100
2017-06-28T03:42:44.935Z,104
2017-06-28T03:43:46.315Z,104
2017-06-28T03:44:47.696Z,112
2017-06-28T03:45:49.081Z,116
2017-06-28T03:46:50.464Z,116
2017-06-28T03:47:51.859Z,120
2017-06-28T03:48:53.265Z,124
2017-06-28T03:49:54.861Z,132
2017-06-28T03:50:56.284Z,132
2017-06-28T03:51:57.667Z,140
2017-06-28T03:52:59.048Z,148
2017-06-28T03:54:00.430Z,160
2017-06-28T03:55:02.090Z,176
2017-06-28T03:56:03.462Z,188
2017-06-28T03:57:04.843Z,196
2017-06-28T03:58:06.225Z,204
2017-06-28T03:59:07.607Z,216
2017-06-28T04:00:08.986Z,228
2017-06-28T04:01:10.375Z,244
2017-06-28T04:02:11.760Z,260
2017-06-28T04:03:13.309Z,276
2017-06-28T04:04:14.775Z,284
2017-06-28T04:05:16.212Z,292
2017-06-28T04:06:17.671Z,288
2017-06-28T04:07:19.062Z,296
2017-06-28T04:08:20.551Z,300
2017-06-28T04:09:21.938Z,296
2017-06-28T04:10:23.326Z,300
2017-06-28T04:11:24.717Z,300
2017-06-28T04:12:26.097Z,304
2017-06-28T04:13:27.480Z,304
2017-06-28T04:14:28.894Z,308
2017-06-28T04:15:30.277Z,304
2017-06-28T04:16:31.659Z,296
2017-06-28T04:17:33.037Z,292
2017-06-28T04:18:34.426Z,284
2017-06-28T04:19:35.809Z,272
2017-06-28T04:20:37.198Z,252
2017-06-28T04:21:38.593Z,232
2017-06-28T04:22:39.974Z,204
2017-06-28T04:23:41.356Z,196
2017-06-28T04:24:42.939Z,184
2017-06-28T04:25:44.331Z,160
2017-06-28T04:26:45.716Z,148
2017-06-28T04:27:47.101Z,144
2017-06-28T04:28:48.503Z,132
2017-06-28T04:29:49.885Z,128
2017-06-28T04:30:51.456Z,120
2017-06-28T04:31:52.840Z,116
2017-06-28T04:32:54.219Z,120
2017-06-28T04:33:55.608Z,128
2017-06-28T04:34:56.987Z,128
2017-06-28T04:35:58.366Z,116
2017-06-28T04:36:59.756Z,112
2017-06-28T04:38:01.284Z,108
2017-06-28T04:39:02.706Z,104
2017-06-28T04:40:04.106Z,108
2017-06-28T04:41:05.477Z,112
2017-06-28T04:42:06.860Z,120
2017-06-28T04:43:08.241Z,120
2017-06-28T04:44:09.634Z,116
2017-06-28T04:45:11.018Z,116
2017-06-28T04:46:12.417Z,116
2017-06-28T04:47:13.786Z,120
2017-06-28T04:48:15.172Z,116
2017-06-28T04:49:16.556Z,132
2017-06-28T04:50:17.944Z,116
2017-06-28T04:51:19.334Z,148
2017-06-28T04:52:20.719Z,148
2017-06-28T04:53:22.084Z,160
2017-06-28T04:54:23.468Z,172
2017-06-28T04:55:24.851Z,188
2017-06-28T04:56:26.234Z,212
2017-06-28T04:57:27.617Z,248
2017-06-28T04:58:28.998Z,264
2017-06-28T04:59:30.391Z,264
2017-06-28T05:00:31.771Z,284
2017-06-28T05:01:33.155Z,336
2017-06-28T05:02:34.540Z,384
2017-06-28T05:03:35.922Z,420
2017-06-28T05:04:37.305Z,452
2017-06-28T05:05:38.691Z,464
2017-06-28T05:06:40.080Z,464
2017-06-28T05:07:41.466Z,480
2017-06-28T05:08:42.849Z,476
2017-06-28T05:09:44.243Z,288
2017-06-28T05:10:45.627Z,504
2017-06-28T05:11:47.011Z,528
2017-06-28T05:12:48.422Z,552
2017-06-28T05:13:49.792Z,560
2017-06-28T05:14:51.179Z,564
2017-06-28T05:15:52.561Z,572
2017-06-28T05:16:53.947Z,576
2017-06-28T05:17:55.336Z,608
2017-06-28T05:18:56.718Z,584
2017-06-28T05:19:58.108Z,612
2017-06-28T05:20:59.497Z,628
2017-06-28T05:22:00.889Z,668
2017-06-28T05:23:02.269Z,696
2017-06-28T05:24:03.652Z,724
2017-06-28T05:25:05.039Z,740
2017-06-28T05:26:06.425Z,740
2017-06-28T05:27:07.826Z,728
2017-06-28T05:28:09.211Z,732
2017-06-28T05:29:10.595Z,724
2017-06-28T05:30:11.969Z,724
2017-06-28T05:31:13.423Z,720
2017-06-28T05:32:14.885Z,736
2017-06-28T05:33:16.269Z,736
2017-06-28T05:34:17.768Z,728
2017-06-28T05:35:19.168Z,708
2017-06-28T05:36:20.594Z,532
2017-06-28T05:37:21.974Z,660
2017-06-28T05:38:23.353Z,688
2017-06-28T05:39:24.744Z,672
2017-06-28T05:40:26.125Z,628
2017-06-28T05:41:27.506Z,636
2017-06-28T05:42:28.889Z,596
2017-06-28T05:43:30.298Z,548
2017-06-28T05:44:31.737Z,552
2017-06-28T05:45:33.123Z,584
2017-06-28T05:46:34.508Z,576
2017-06-28T05:47:35.888Z,556
2017-06-28T05:48:37.292Z,532
2017-06-28T05:49:38.688Z,528
2017-06-28T05:50:40.065Z,556
2017-06-28T05:51:41.452Z,540
2017-06-28T05:52:42.842Z,524
2017-06-28T05:53:44.228Z,540
2017-06-28T05:54:45.608Z,524
2017-06-28T05:55:46.986Z,512
2017-06-28T05:56:48.367Z,536
2017-06-28T05:57:49.747Z,584
2017-06-28T05:58:51.132Z,588
2017-06-28T05:59:52.519Z,592
2017-06-28T06:00:53.893Z,612
2017-06-28T06:01:55.278Z,584
2017-06-28T06:02:56.671Z,600
2017-06-28T06:03:58.058Z,592
2017-06-28T06:04:59.465Z,652
2017-06-28T06:06:00.852Z,360
2017-06-28T06:07:02.233Z,624
2017-06-28T06:08:03.619Z,572
2017-06-28T06:09:05.004Z,596
2017-06-28T06:10:06.389Z,604
2017-06-28T06:11:07.767Z,596
2017-06-28T06:12:09.557Z,596
2017-06-28T06:13:10.940Z,612
2017-06-28T06:14:12.839Z,504
2017-06-28T06:15:14.234Z,592
2017-06-28T06:16:15.618Z,732
2017-06-28T06:17:17.816Z,776
2017-06-28T06:18:19.207Z,880
2017-06-28T06:19:20.791Z,1040
2017-06-28T06:20:22.178Z,1184
2017-06-28T06:21:23.942Z,1368
2017-06-28T06:22:25.450Z,1520
2017-06-28T06:23:27.544Z,1580
2017-06-28T06:24:28.865Z,1548
2017-06-28T06:25:30.247Z,1472
2017-06-28T06:26:31.758Z,1304
2017-06-28T06:27:33.141Z,1236
2017-06-28T06:28:34.741Z,1124
2017-06-28T06:29:36.194Z,1032
2017-06-28T06:30:38.286Z,904
2017-06-28T06:31:39.664Z,896
2017-06-28T06:32:41.070Z,832
2017-06-28T06:33:42.465Z,732
2017-06-28T06:34:43.856Z,664
2017-06-28T06:35:45.237Z,740
2017-06-28T06:36:46.632Z,752
2017-06-28T06:37:48.014Z,748
2017-06-28T06:38:49.408Z,708
2017-06-28T06:39:50.794Z,688
2017-06-28T06:40:52.177Z,644
2017-06-28T06:41:53.562Z,692
2017-06-28T06:42:54.944Z,772
2017-06-28T06:43:56.326Z,928
2017-06-28T06:44:57.711Z,956
2017-06-28T06:46:03.108Z,992
2017-06-28T06:47:04.509Z,1000
2017-06-28T06:48:05.903Z,1088
2017-06-28T06:49:07.298Z,1044
2017-06-28T06:50:08.688Z,1120
2017-06-28T06:51:10.077Z,1124
2017-06-28T06:52:11.464Z,1084
2017-06-28T06:53:12.863Z,1012
2017-06-28T06:54:14.251Z,988
2017-06-28T06:55:15.902Z,976
2017-06-28T06:56:17.299Z,952
2017-06-28T06:57:18.689Z,972
2017-06-28T06:58:20.787Z,984
2017-06-28T06:59:22.474Z,1004
2017-06-28T07:00:23.862Z,992
2017-06-28T07:01:25.248Z,980
2017-06-28T07:02:26.734Z,948
2017-06-28T07:03:28.131Z,892
2017-06-28T07:04:29.619Z,840
2017-06-28T07:05:31.026Z,756
2017-06-28T07:06:32.408Z,696
2017-06-28T07:07:33.802Z,684
2017-06-28T07:08:35.898Z,692
2017-06-28T07:09:37.258Z,724
2017-06-28T07:10:38.650Z,756
2017-06-28T07:11:40.037Z,796
2017-06-28T07:12:41.473Z,784
2017-06-28T07:13:42.863Z,732
2017-06-28T07:14:44.248Z,732
2017-06-28T07:15:45.629Z,740
2017-06-28T07:16:47.048Z,764
2017-06-28T07:17:48.440Z,780
2017-06-28T07:18:49.828Z,724
2017-06-28T07:19:51.252Z,728
2017-06-28T07:20:52.637Z,780
2017-06-28T07:21:54.027Z,844
2017-06-28T07:22:55.556Z,892
2017-06-28T07:23:58.257Z,996
2017-06-28T07:25:00.025Z,1004
2017-06-28T07:26:01.335Z,1056
2017-06-28T07:27:02.721Z,1108
2017-06-28T07:28:04.108Z,1108
2017-06-28T07:29:05.498Z,1184
2017-06-28T07:30:06.890Z,1232
2017-06-28T07:31:08.282Z,1288
2017-06-28T07:32:09.669Z,1364
2017-06-28T07:33:11.052Z,1388
2017-06-28T07:34:12.438Z,1548
2017-06-28T07:35:13.839Z,1676
2017-06-28T07:36:15.229Z,1744
2017-06-28T07:37:16.617Z,1844
2017-06-28T07:38:18.003Z,1912
2017-06-28T07:39:19.381Z,1996
2017-06-28T07:40:20.773Z,2028
2017-06-28T07:41:22.413Z,2068
2017-06-28T07:42:23.826Z,2144
2017-06-28T07:43:25.218Z,2160
2017-06-28T07:44:26.610Z,2172
2017-06-28T07:45:27.989Z,2204
2017-06-28T07:46:29.384Z,2276
2017-06-28T07:47:30.774Z,2324
2017-06-28T07:48:32.164Z,2320
2017-06-28T07:49:33.547Z,2312
2017-06-28T07:50:34.936Z,2140
2017-06-28T07:51:36.322Z,2208
2017-06-28T07:52:37.708Z,2208
2017-06-28T07:53:39.100Z,2164
2017-06-28T07:54:40.479Z,2124
2017-06-28T07:55:41.865Z,2196
2017-06-28T07:56:43.251Z,2184
2017-06-28T07:57:44.648Z,2268
2017-06-28T07:58:46.042Z,2084
2017-06-28T07:59:47.430Z,2336
2017-06-28T08:00:48.819Z,2420
2017-06-28T08:01:50.421Z,2352
2017-06-28T08:02:51.815Z,2304
2017-06-28T08:03:53.212Z,2108
2017-06-28T08:04:54.585Z,2108
2017-06-28T08:05:55.966Z,1904
2017-06-28T08:06:57.358Z,1748
2017-06-28T08:07:58.740Z,1732
2017-06-28T08:09:00.127Z,1696
2017-06-28T08:10:01.519Z,1556
2017-06-28T08:11:02.908Z,1312
2017-06-28T08:12:04.299Z,1400
2017-06-28T08:13:05.821Z,1368
2017-06-28T08:14:07.209Z,1408
2017-06-28T08:15:08.602Z,1432
2017-06-28T08:16:09.981Z,1476
2017-06-28T08:17:11.369Z,1480
2017-06-28T08:18:12.765Z,1480
2017-06-28T08:19:14.154Z,1472
2017-06-28T08:20:15.545Z,1544
2017-06-28T08:21:16.934Z,1644
2017-06-28T08:22:18.321Z,1752
2017-06-28T08:23:19.771Z,1808
2017-06-28T08:24:21.157Z,1804
2017-06-28T08:25:22.541Z,1768
2017-06-28T08:26:23.944Z,1752
2017-06-28T08:27:25.349Z,1708
2017-06-28T08:28:26.743Z,1664
2017-06-28T08:29:28.123Z,1632
2017-06-28T08:30:29.510Z,1568
2017-06-28T08:31:30.900Z,1560
2017-06-28T08:32:32.289Z,1504
2017-06-28T08:33:33.670Z,1512
2017-06-28T08:34:35.055Z,1484
2017-06-28T08:35:36.438Z,1500
2017-06-28T08:36:37.820Z,1544
2017-06-28T08:37:39.214Z,1572
2017-06-28T08:38:40.824Z,1572
2017-06-28T08:39:42.217Z,1572
2017-06-28T08:40:43.599Z,1556
2017-06-28T08:41:45.016Z,1568
2017-06-28T08:42:46.399Z,1596
2017-06-28T08:43:47.780Z,1584
2017-06-28T08:44:49.170Z,1672
2017-06-28T08:45:50.566Z,1788
2017-06-28T08:46:51.954Z,1776
2017-06-28T08:47:53.339Z,1732
2017-06-28T08:48:54.734Z,1712
2017-06-28T08:49:56.121Z,1664
2017-06-28T08:50:57.505Z,1672
2017-06-28T08:51:58.888Z,1716
2017-06-28T08:53:00.282Z,1880
2017-06-28T08:54:01.665Z,1944
2017-06-28T08:55:03.049Z,1808
2017-06-28T08:56:04.439Z,1808
2017-06-28T08:57:05.829Z,1992
2017-06-28T08:58:07.223Z,2028
2017-06-28T08:59:08.608Z,1916
2017-06-28T09:00:09.993Z,1824
2017-06-28T09:01:11.391Z,1748
2017-06-28T09:02:12.773Z,1640
2017-06-28T09:03:15.616Z,1552
2017-06-28T09:04:17.002Z,1496
2017-06-28T09:05:18.389Z,1320
2017-06-28T09:06:19.771Z,1232
2017-06-28T09:07:21.165Z,1212
2017-06-28T09:08:22.550Z,1168
2017-06-28T09:09:23.938Z,1152
2017-06-28T09:10:26.449Z,1116
2017-06-28T09:11:29.072Z,1116
2017-06-28T09:12:30.598Z,1012
2017-06-28T09:13:33.399Z,932
2017-06-28T09:14:34.719Z,972
2017-06-28T09:15:36.607Z,944
2017-06-28T09:16:37.989Z,1008
2017-06-28T09:17:39.358Z,1016
2017-06-28T09:18:40.738Z,1296
2017-06-28T09:19:42.127Z,1412
2017-06-28T09:20:43.520Z,1528
2017-06-28T09:21:44.908Z,1648
2017-06-28T09:22:46.302Z,1888
2017-06-28T09:23:47.691Z,1736
2017-06-28T09:24:49.077Z,1416
2017-06-28T09:25:50.466Z,1608
2017-06-28T09:26:51.861Z,1460
2017-06-28T09:27:53.263Z,1344
2017-06-28T09:28:54.641Z,1272
2017-06-28T09:29:56.033Z,1336
2017-06-28T09:30:57.424Z,1248
2017-06-28T09:31:58.814Z,1300
2017-06-28T09:33:00.204Z,1216
2017-06-28T09:34:01.591Z,1008
2017-06-28T09:35:03.027Z,952
2017-06-28T09:36:04.401Z,964
2017-06-28T09:37:05.785Z,828
2017-06-28T09:38:07.171Z,644
2017-06-28T09:39:08.552Z,460
2017-06-28T09:40:09.939Z,452
2017-06-28T09:41:11.335Z,476
2017-06-28T09:42:12.721Z,436
2017-06-28T09:43:14.114Z,440
2017-06-28T09:44:15.509Z,500
2017-06-28T09:45:16.899Z,536
2017-06-28T09:46:18.290Z,600
2017-06-28T09:47:19.689Z,624
2017-06-28T09:48:21.080Z,688
2017-06-28T09:49:22.483Z,680
2017-06-28T09:50:23.864Z,856
2017-06-28T09:51:25.250Z,1104
2017-06-28T09:52:26.633Z,1272
2017-06-28T09:53:28.017Z,1424
2017-06-28T09:54:29.408Z,1644
2017-06-28T09:55:30.798Z,1908
2017-06-28T09:56:32.352Z,2072
2017-06-28T09:57:33.745Z,2052
2017-06-28T09:58:35.956Z,2140
2017-06-28T09:59:37.353Z,2344
2017-06-28T10:00:38.747Z,2372
2017-06-28T10:01:40.140Z,2492
2017-06-28T10:02:41.525Z,2544
2017-06-28T10:03:42.938Z,2240
2017-06-28T10:04:44.329Z,2096
2017-06-28T10:05:45.720Z,2024
2017-06-28T10:06:47.107Z,2024
2017-06-28T10:07:48.491Z,2024
2017-06-28T10:08:49.891Z,1976
2017-06-28T10:09:51.279Z,2064
2017-06-28T10:10:52.669Z,2164
2017-06-28T10:11:54.056Z,1980
2017-06-28T10:12:55.442Z,1840
2017-06-28T10:13:56.843Z,1604
2017-06-28T10:14:58.228Z,1624
2017-06-28T10:15:59.611Z,1492
2017-06-28T10:17:00.997Z,1736
2017-06-28T10:18:02.390Z,1688
2017-06-28T10:19:03.781Z,1816
2017-06-28T10:20:05.165Z,1960
2017-06-28T10:21:06.550Z,1928
2017-06-28T10:22:07.942Z,1892
2017-06-28T10:23:09.329Z,1560
2017-06-28T10:24:10.720Z,1500
2017-06-28T10:25:12.110Z,1612
2017-06-28T10:26:13.499Z,1732
2017-06-28T10:27:14.892Z,1872
2017-06-28T10:28:16.281Z,2148
2017-06-28T10:29:17.673Z,2588
2017-06-28T10:30:19.069Z,2760
2017-06-28T10:31:20.449Z,3012
2017-06-28T10:32:21.847Z,3188
2017-06-28T10:33:23.248Z,3112
2017-06-28T10:34:24.635Z,2972
2017-06-28T10:35:26.031Z,2836
2017-06-28T10:36:27.431Z,2664
2017-06-28T10:37:28.821Z,2532
2017-06-28T10:38:30.216Z,2300
2017-06-28T10:39:31.602Z,2264
2017-06-28T10:40:32.992Z,2084
2017-06-28T10:41:34.375Z,2136
2017-06-28T10:42:35.760Z,2392
2017-06-28T10:43:37.161Z,2364
2017-06-28T10:44:38.557Z,1120
2017-06-28T10:45:39.930Z,1692
2017-06-28T10:46:41.324Z,2460
2017-06-28T10:47:42.723Z,2816
2017-06-28T10:48:44.112Z,2964
2017-06-28T10:49:45.508Z,2896
2017-06-28T10:50:46.897Z,2876
2017-06-28T10:51:48.282Z,2940
2017-06-28T10:52:49.673Z,2912
2017-06-28T10:53:51.068Z,2744
2017-06-28T10:54:52.458Z,2736
2017-06-28T10:55:53.844Z,3016
2017-06-28T10:56:55.246Z,3052
2017-06-28T10:57:56.632Z,2952
2017-06-28T10:58:58.369Z,2840
2017-06-28T10:59:59.832Z,2828
2017-06-28T11:01:01.227Z,2752
2017-06-28T11:02:02.644Z,2628
2017-06-28T11:03:04.038Z,2460
2017-06-28T11:04:05.639Z,2268
2017-06-28T11:05:07.251Z,2164
2017-06-28T11:06:08.788Z,1772
2017-06-28T11:07:10.171Z,1956
2017-06-28T11:08:11.560Z,1912
2017-06-28T11:09:12.950Z,1908
2017-06-28T11:10:14.354Z,2124
2017-06-28T11:11:15.750Z,2076
2017-06-28T11:12:17.154Z,2204
2017-06-28T11:13:18.543Z,2292
2017-06-28T11:14:19.936Z,2376
2017-06-28T11:15:21.318Z,2436
2017-06-28T11:16:22.705Z,2664
2017-06-28T11:17:24.095Z,2568
2017-06-28T11:18:25.496Z,2648
2017-06-28T11:19:26.878Z,2532
2017-06-28T11:20:28.271Z,2696
2017-06-28T11:21:29.662Z,2736
2017-06-28T11:22:31.108Z,2860
2017-06-28T11:23:32.497Z,3060
2017-06-28T11:24:33.881Z,3216
2017-06-28T11:25:35.271Z,3424
2017-06-28T11:26:36.660Z,3228
2017-06-28T11:27:38.052Z,3320
2017-06-28T11:28:39.453Z,3112
2017-06-28T11:29:40.848Z,3132
2017-06-28T11:30:42.241Z,3092
2017-06-28T11:31:43.636Z,2908
2017-06-28T11:32:45.023Z,2704
2017-06-28T11:33:46.422Z,2612
2017-06-28T11:34:47.814Z,2516
2017-06-28T11:35:49.226Z,2156
2017-06-28T11:36:50.588Z,2104
2017-06-28T11:37:51.971Z,1972
2017-06-28T11:38:53.353Z,1756
2017-06-28T11:39:54.746Z,1540
2017-06-28T11:40:56.130Z,1444
2017-06-28T11:41:57.525Z,1524
2017-06-28T11:42:58.925Z,1412
2017-06-28T11:44:00.312Z,1284
2017-06-28T11:45:01.703Z,1156
2017-06-28T11:46:03.093Z,928
2017-06-28T11:47:04.479Z,820
2017-06-28T11:48:05.860Z,776
2017-06-28T11:49:07.247Z,720
2017-06-28T11:50:08.638Z,752
2017-06-28T11:51:10.024Z,784
2017-06-28T11:52:11.406Z,892
2017-06-28T11:53:12.794Z,892
2017-06-28T11:54:14.179Z,1108
2017-06-28T11:55:15.574Z,1236
2017-06-28T11:56:16.959Z,1432
2017-06-28T11:57:18.344Z,1392
2017-06-28T11:58:19.746Z,884
2017-06-28T11:59:21.130Z,1340
2017-06-28T12:00:22.514Z,1288
2017-06-28T12:01:23.896Z,1204
2017-06-28T12:02:25.287Z,1320
2017-06-28T12:03:26.675Z,1284
2017-06-28T12:04:28.069Z,1272
2017-06-28T12:05:29.461Z,1260
2017-06-28T12:06:30.873Z,1512
2017-06-28T12:07:32.265Z,1484
2017-06-28T12:08:33.653Z,1600
2017-06-28T12:09:35.040Z,1792
2017-06-28T12:10:36.434Z,1932
2017-06-28T12:11:37.820Z,2092
2017-06-28T12:12:39.212Z,2260
2017-06-28T12:13:40.602Z,2224
2017-06-28T12:14:41.993Z,2472
2017-06-28T12:15:43.379Z,2896
2017-06-28T12:16:44.774Z,3032
2017-06-28T12:17:46.174Z,2812
2017-06-28T12:18:47.556Z,2480
2017-06-28T12:19:48.957Z,2368
2017-06-28T12:20:50.343Z,2456
2017-06-28T12:21:51.733Z,2488
2017-06-28T12:22:53.122Z,2832
2017-06-28T12:23:54.507Z,3036
2017-06-28T12:24:55.897Z,3160
2017-06-28T12:25:57.292Z,3376
2017-06-28T12:26:58.692Z,3408
2017-06-28T12:28:00.081Z,3608
2017-06-28T12:29:01.472Z,3732
2017-06-28T12:30:02.860Z,3948
2017-06-28T12:31:04.255Z,4164
2017-06-28T12:32:05.639Z,4232
2017-06-28T12:33:07.032Z,4096
2017-06-28T12:34:08.434Z,4080
2017-06-28T12:35:09.823Z,3920
2017-06-28T12:36:11.222Z,3952
2017-06-28T12:37:12.609Z,3928
2017-06-28T12:38:14.000Z,4184
2017-06-28T12:39:15.392Z,4072
2017-06-28T12:40:16.786Z,3900
2017-06-28T12:41:18.183Z,3556
2017-06-28T12:42:19.585Z,3368
2017-06-28T12:43:20.970Z,3448
2017-06-28T12:44:22.361Z,3648
2017-06-28T12:45:23.746Z,3448
2017-06-28T12:46:25.201Z,3256
2017-06-28T12:47:26.596Z,3164
2017-06-28T12:48:28.980Z,2988
2017-06-28T12:49:30.371Z,3012
2017-06-28T12:50:31.761Z,3188
2017-06-28T12:51:33.157Z,3148
2017-06-28T12:52:34.546Z,2944
2017-06-28T12:53:35.934Z,3156
2017-06-28T12:54:37.322Z,3304
2017-06-28T12:55:38.709Z,3312
2017-06-28T12:56:40.104Z,3148
2017-06-28T12:57:41.492Z,2992
2017-06-28T12:58:42.881Z,2956
2017-06-28T12:59:44.266Z,2852
2017-06-28T13:00:45.663Z,2644
2017-06-28T13:01:47.046Z,2560
2017-06-28T13:02:48.429Z,2244
2017-06-28T13:03:49.820Z,2004
2017-06-28T13:04:51.248Z,2056
2017-06-28T13:05:52.645Z,2048
2017-06-28T13:06:54.027Z,2140
2017-06-28T13:07:55.423Z,2148
2017-06-28T13:08:56.804Z,2244
2017-06-28T13:09:58.190Z,2380
2017-06-28T13:10:59.583Z,2588
2017-06-28T13:12:00.980Z,2576
2017-06-28T13:13:02.368Z,2620
2017-06-28T13:14:03.766Z,2640
2017-06-28T13:15:05.158Z,2668
2017-06-28T13:16:06.549Z,2480
2017-06-28T13:17:07.944Z,2180
2017-06-28T13:18:09.327Z,2000
2017-06-28T13:19:10.713Z,1776
2017-06-28T13:20:12.096Z,1476
2017-06-28T13:21:13.477Z,1268
2017-06-28T13:22:14.865Z,1168
2017-06-28T13:23:16.256Z,1140
2017-06-28T13:24:17.647Z,912
2017-06-28T13:25:19.037Z,824
2017-06-28T13:26:20.432Z,932
2017-06-28T13:27:21.818Z,1024
2017-06-28T13:28:23.209Z,988
2017-06-28T13:29:24.607Z,804
2017-06-28T13:30:26.003Z,676
2017-06-28T13:31:27.387Z,460
2017-06-28T13:32:28.772Z,392
2017-06-28T13:33:30.165Z,368
2017-06-28T13:34:31.550Z,436
2017-06-28T13:35:32.935Z,492
2017-06-28T13:36:34.321Z,540
2017-06-28T13:37:35.709Z,608
2017-06-28T13:38:37.096Z,656
2017-06-28T13:39:38.481Z,716
2017-06-28T13:40:39.865Z,796
2017-06-28T13:41:41.297Z,828
2017-06-28T13:42:42.738Z,812
2017-06-28T13:43:44.128Z,736
2017-06-28T13:44:45.530Z,716
2017-06-28T13:45:47.006Z,548
2017-06-28T13:46:48.396Z,540
2017-06-28T13:47:49.781Z,488
2017-06-28T13:48:51.172Z,452
2017-06-28T13:49:52.559Z,532
2017-06-28T13:50:53.939Z,580
2017-06-28T13:51:55.338Z,660
2017-06-28T13:52:56.734Z,800
2017-06-28T13:53:58.116Z,1064
2017-06-28T13:54:59.516Z,1380
2017-06-28T13:56:00.902Z,1656
2017-06-28T13:57:02.289Z,1924
2017-06-28T13:58:03.677Z,2048
2017-06-28T13:59:05.074Z,1860
2017-06-28T14:00:06.462Z,1700
2017-06-28T14:01:07.850Z,1372
2017-06-28T14:02:09.243Z,1336
2017-06-28T14:03:10.630Z,1240
2017-06-28T14:04:12.020Z,1160
2017-06-28T14:05:13.414Z,1192
2017-06-28T14:06:14.808Z,1276
2017-06-28T14:07:16.196Z,1364